Terminal Aerodrome Forecast
Issued by NWS Northern Indiana

Home | Current Version | Previous Version | Graphics & Text | Print | Product List | Glossary On
Versions: 1 2 3 4 5 6 7 8 9 10 11 12 13
000
FTUS43 KIWX 282320
TAFFWA
TAF
KFWA 282320Z 2900/2924 12004KT P6SM FEW040 BKN250
     FM291400 14004KT 6SM -SHRA BKN050 BKN120
      TEMPO 2916/2919 21012KT 4SM TSRA BKN040CB
     FM291900 27007KT P6SM BKN035=

USA.gov is the U.S. government's official web portal to all federal, state and local government web resources and services.